EmailTwitter


Surface observations / United Kingdom / EGLL (03772)

Regions: Quebec | Canada | USA | Europe | France | UK | Elsewhere
Station
Display
Info & Location for EGLL (03772) | Help decoding METAR

Weather Conditions observed on 2017/03/25 at 03:50 UTC at LONDON/HEATHROW, UK (EGLL)

Temperature: 5.0 Celsius.

Dewpoint: 3.0 Celsius.

Relative Humidity: 87%

Windchill Factor: 2.

Winds: Northeast at 13 km/h or 7 knots.

Mean Sea level Pressure: 103.10 kilopascals.

Horizontal visibility: 6.21 statute miles or 9.94 kilometers.

Coded METAR:

EGLL 250350Z AUTO 05007KT 9999 NCD 05/03 Q1031 NOSIG=